Cowley Airport


Codes: CYYM/YYM
Name: Cowley Airport
City: Cowley
Country: Canada
Elevation: 3876 ft.
Wikipedia:

Photos at Cowley Airport


   Photos courtesy of SpottingLog. You can add your own sightings and photos by signing up for a free trial today.



No photos found.

Weather at Cowley Airport


Time (UTC)DescriptionTempratureWindCloud coverageVisibilityPressureHumidity
21-Jun-2024 15:00Scattered Clouds7°C2 mph, E27%10000m1020hPa86%
21-Jun-2024 18:00Light Rain13°C4 mph, E13%10000m1017hPa72%
21-Jun-2024 21:00Light Rain20°C7 mph, SE27%10000m1012hPa47%
22-Jun-2024 00:00Light Rain18°C18 mph, E22%10000m1011hPa59%
22-Jun-2024 03:00Light Rain14°C2 mph, SE35%10000m1013hPa82%
22-Jun-2024 06:00Scattered Clouds10°C4 mph, W32%10000m1014hPa88%
22-Jun-2024 09:00Clear Sky9°C4 mph, NW0%10000m1014hPa85%
22-Jun-2024 12:00Clear Sky8°C4 mph, W1%10000m1014hPa78%
22-Jun-2024 15:00Few Clouds16°C4 mph, W13%10000m1011hPa56%
22-Jun-2024 18:00Scattered Clouds22°C11 mph, W39%10000m1009hPa34%
22-Jun-2024 21:00Broken Clouds24°C16 mph, W67%10000m1007hPa33%
23-Jun-2024 00:00Broken Clouds24°C13 mph, SW59%10000m1005hPa38%
23-Jun-2024 03:00Scattered Clouds19°C7 mph, SW28%10000m1006hPa49%
23-Jun-2024 06:00Few Clouds14°C4 mph, SW16%10000m1007hPa53%
23-Jun-2024 09:00Clear Sky12°C7 mph, SW7%10000m1006hPa58%
23-Jun-2024 12:00Clear Sky11°C7 mph, SW4%10000m1005hPa62%
23-Jun-2024 15:00Clear Sky21°C16 mph, SW0%10000m1002hPa45%
23-Jun-2024 18:00Scattered Clouds23°C22 mph, SW27%10000m1001hPa37%
23-Jun-2024 21:00Overcast Clouds24°C25 mph, SW94%10000m1000hPa29%
24-Jun-2024 00:00Broken Clouds23°C22 mph, SW55%10000m999hPa34%
24-Jun-2024 03:00Clear Sky18°C25 mph, SW0%10000m1000hPa36%
24-Jun-2024 06:00Clear Sky16°C25 mph, SW0%10000m1002hPa28%
24-Jun-2024 09:00Clear Sky15°C25 mph, SW3%10000m1001hPa24%
24-Jun-2024 12:00Clear Sky13°C18 mph, SW0%10000m1002hPa35%
24-Jun-2024 15:00Clear Sky16°C18 mph, SW0%10000m1004hPa39%
24-Jun-2024 18:00Clear Sky19°C22 mph, W0%10000m1005hPa32%
24-Jun-2024 21:00Clear Sky21°C22 mph, W0%10000m1005hPa29%
25-Jun-2024 00:00Clear Sky22°C20 mph, W0%10000m1005hPa31%
25-Jun-2024 03:00Clear Sky17°C13 mph, W1%10000m1007hPa39%
25-Jun-2024 06:00Clear Sky10°C4 mph, N1%10000m1013hPa82%
25-Jun-2024 09:00Clear Sky9°C0 mph, SE6%10000m1015hPa82%
25-Jun-2024 12:00Broken Clouds10°C2 mph, SE52%10000m1016hPa85%
25-Jun-2024 15:00Overcast Clouds12°C7 mph, SE100%10000m1015hPa76%
25-Jun-2024 18:00Overcast Clouds19°C7 mph, E96%10000m1012hPa48%
25-Jun-2024 21:00Clear Sky24°C18 mph, W6%10000m1008hPa29%
26-Jun-2024 00:00Clear Sky25°C16 mph, W7%10000m1007hPa33%
26-Jun-2024 03:00Clear Sky19°C9 mph, SW8%10000m1008hPa47%
26-Jun-2024 06:00Clear Sky14°C7 mph, SW9%10000m1009hPa48%
26-Jun-2024 09:00Broken Clouds13°C4 mph, W80%10000m1009hPa51%
26-Jun-2024 12:00Overcast Clouds12°C4 mph, W90%10000m1009hPa56%